sensor_id;sensor_type;location;lat;lon;timestamp;temperature;humidity
19803;DHT22;66074;50.764;6.090;2024-02-21T00:01:39;10.10;97.70
19803;DHT22;66074;50.764;6.090;2024-02-21T00:04:05;10.10;97.80
19803;DHT22;66074;50.764;6.090;2024-02-21T00:06:31;10.10;97.70
19803;DHT22;66074;50.764;6.090;2024-02-21T00:08:57;10.10;97.80
19803;DHT22;66074;50.764;6.090;2024-02-21T00:11:22;10.00;97.80
19803;DHT22;66074;50.764;6.090;2024-02-21T00:13:48;10.10;97.90
19803;DHT22;66074;50.764;6.090;2024-02-21T00:16:13;10.10;98.00
19803;DHT22;66074;50.764;6.090;2024-02-21T00:18:41;10.20;98.00
19803;DHT22;66074;50.764;6.090;2024-02-21T00:21:06;10.10;98.00
19803;DHT22;66074;50.764;6.090;2024-02-21T00:23:32;10.10;98.00
19803;DHT22;66074;50.764;6.090;2024-02-21T00:25:57;10.10;98.10
19803;DHT22;66074;50.764;6.090;2024-02-21T00:28:26;10.10;98.10
19803;DHT22;66074;50.764;6.090;2024-02-21T00:30:51;10.10;98.10
19803;DHT22;66074;50.764;6.090;2024-02-21T00:33:19;10.10;98.10
19803;DHT22;66074;50.764;6.090;2024-02-21T00:35:44;10.10;98.10
19803;DHT22;66074;50.764;6.090;2024-02-21T00:38:10;10.10;98.10
19803;DHT22;66074;50.764;6.090;2024-02-21T00:40:36;10.10;98.20
19803;DHT22;66074;50.764;6.090;2024-02-21T00:43:01;10.10;98.30
19803;DHT22;66074;50.764;6.090;2024-02-21T00:45:27;10.10;98.20
19803;DHT22;66074;50.764;6.090;2024-02-21T00:47:52;10.10;98.20
19803;DHT22;66074;50.764;6.090;2024-02-21T00:50:18;10.20;98.20
19803;DHT22;66074;50.764;6.090;2024-02-21T00:52:44;10.10;98.20
19803;DHT22;66074;50.764;6.090;2024-02-21T00:55:10;10.10;98.20
19803;DHT22;66074;50.764;6.090;2024-02-21T00:57:36;10.10;98.30
19803;DHT22;66074;50.764;6.090;2024-02-21T01:00:03;10.10;98.40
19803;DHT22;66074;50.764;6.090;2024-02-21T01:02:28;10.00;98.30
19803;DHT22;66074;50.764;6.090;2024-02-21T01:04:57;10.10;98.30
19803;DHT22;66074;50.764;6.090;2024-02-21T01:07:22;10.00;98.40
19803;DHT22;66074;50.764;6.090;2024-02-21T01:09:48;10.00;98.30
19803;DHT22;66074;50.764;6.090;2024-02-21T01:12:14;10.00;98.50
19803;DHT22;66074;50.764;6.090;2024-02-21T01:14:39;10.00;98.50
19803;DHT22;66074;50.764;6.090;2024-02-21T01:17:05;10.00;98.50
19803;DHT22;66074;50.764;6.090;2024-02-21T01:19:31;10.00;98.50
19803;DHT22;66074;50.764;6.090;2024-02-21T01:21:57;10.10;98.60
19803;DHT22;66074;50.764;6.090;2024-02-21T01:24:22;10.00;98.60
19803;DHT22;66074;50.764;6.090;2024-02-21T01:26:49;10.00;98.60
19803;DHT22;66074;50.764;6.090;2024-02-21T01:29:15;10.10;98.60
19803;DHT22;66074;50.764;6.090;2024-02-21T01:31:40;10.00;98.60
19803;DHT22;66074;50.764;6.090;2024-02-21T01:34:06;10.00;98.70
19803;DHT22;66074;50.764;6.090;2024-02-21T01:36:32;10.00;98.60
19803;DHT22;66074;50.764;6.090;2024-02-21T01:38:58;10.00;98.60
19803;DHT22;66074;50.764;6.090;2024-02-21T01:41:24;10.00;98.60
19803;DHT22;66074;50.764;6.090;2024-02-21T01:43:50;10.00;98.70
19803;DHT22;66074;50.764;6.090;2024-02-21T01:46:18;10.00;98.70
19803;DHT22;66074;50.764;6.090;2024-02-21T01:48:44;10.10;98.80
19803;DHT22;66074;50.764;6.090;2024-02-21T01:51:11;10.00;98.80
19803;DHT22;66074;50.764;6.090;2024-02-21T01:53:42;10.10;99.00
19803;DHT22;66074;50.764;6.090;2024-02-21T01:56:08;10.00;98.80
19803;DHT22;66074;50.764;6.090;2024-02-21T01:58:36;10.10;98.80
19803;DHT22;66074;50.764;6.090;2024-02-21T02:01:05;10.10;98.80
19803;DHT22;66074;50.764;6.090;2024-02-21T02:03:31;10.10;98.90
19803;DHT22;66074;50.764;6.090;2024-02-21T02:05:56;10.10;98.90
19803;DHT22;66074;50.764;6.090;2024-02-21T02:08:22;10.10;99.30
19803;DHT22;66074;50.764;6.090;2024-02-21T02:10:48;10.10;98.90
19803;DHT22;66074;50.764;6.090;2024-02-21T02:13:14;10.10;99.00
19803;DHT22;66074;50.764;6.090;2024-02-21T02:15:43;10.10;99.00
19803;DHT22;66074;50.764;6.090;2024-02-21T02:18:10;10.10;99.00
19803;DHT22;66074;50.764;6.090;2024-02-21T02:20:36;10.10;98.90
19803;DHT22;66074;50.764;6.090;2024-02-21T02:25:37;10.20;99.00
19803;DHT22;66074;50.764;6.090;2024-02-21T02:28:08;10.10;99.00
19803;DHT22;66074;50.764;6.090;2024-02-21T02:30:35;10.20;99.00
19803;DHT22;66074;50.764;6.090;2024-02-21T02:33:05;10.10;99.00
19803;DHT22;66074;50.764;6.090;2024-02-21T02:35:31;10.20;99.10
19803;DHT22;66074;50.764;6.090;2024-02-21T02:37:57;10.10;99.10
19803;DHT22;66074;50.764;6.090;2024-02-21T02:40:23;10.10;99.10
19803;DHT22;66074;50.764;6.090;2024-02-21T02:42:49;10.20;99.10
19803;DHT22;66074;50.764;6.090;2024-02-21T02:45:15;10.20;99.10
19803;DHT22;66074;50.764;6.090;2024-02-21T02:47:41;10.20;99.20
19803;DHT22;66074;50.764;6.090;2024-02-21T02:50:07;10.10;99.10
19803;DHT22;66074;50.764;6.090;2024-02-21T02:52:33;10.10;99.10
19803;DHT22;66074;50.764;6.090;2024-02-21T02:54:59;10.10;99.10
19803;DHT22;66074;50.764;6.090;2024-02-21T02:57:24;10.10;99.30
19803;DHT22;66074;50.764;6.090;2024-02-21T02:59:51;10.10;99.00
19803;DHT22;66074;50.764;6.090;2024-02-21T03:02:17;10.10;99.10
19803;DHT22;66074;50.764;6.090;2024-02-21T03:04:43;10.10;99.10
19803;DHT22;66074;50.764;6.090;2024-02-21T03:07:09;10.10;99.10
19803;DHT22;66074;50.764;6.090;2024-02-21T03:09:34;10.10;99.10
19803;DHT22;66074;50.764;6.090;2024-02-21T03:12:00;10.10;99.10
19803;DHT22;66074;50.764;6.090;2024-02-21T03:14:31;10.10;99.10
19803;DHT22;66074;50.764;6.090;2024-02-21T03:16:58;10.10;99.10
19803;DHT22;66074;50.764;6.090;2024-02-21T03:19:24;10.10;99.10
19803;DHT22;66074;50.764;6.090;2024-02-21T03:21:53;10.10;99.10
19803;DHT22;66074;50.764;6.090;2024-02-21T03:24:18;10.10;99.10
19803;DHT22;66074;50.764;6.090;2024-02-21T03:26:44;10.10;99.00
19803;DHT22;66074;50.764;6.090;2024-02-21T03:29:11;10.10;99.10
19803;DHT22;66074;50.764;6.090;2024-02-21T03:31:37;10.10;99.00
19803;DHT22;66074;50.764;6.090;2024-02-21T03:34:03;10.10;99.00
19803;DHT22;66074;50.764;6.090;2024-02-21T03:36:28;10.10;99.00
19803;DHT22;66074;50.764;6.090;2024-02-21T03:38:55;10.10;99.00
19803;DHT22;66074;50.764;6.090;2024-02-21T03:41:21;10.20;99.00
19803;DHT22;66074;50.764;6.090;2024-02-21T03:43:47;10.10;99.00
19803;DHT22;66074;50.764;6.090;2024-02-21T03:46:12;10.10;99.00
19803;DHT22;66074;50.764;6.090;2024-02-21T03:48:38;10.10;98.90
19803;DHT22;66074;50.764;6.090;2024-02-21T03:51:04;10.10;98.90
19803;DHT22;66074;50.764;6.090;2024-02-21T03:53:30;10.10;98.80
19803;DHT22;66074;50.764;6.090;2024-02-21T03:55:56;10.10;98.80
19803;DHT22;66074;50.764;6.090;2024-02-21T03:58:21;10.10;98.80
19803;DHT22;66074;50.764;6.090;2024-02-21T04:00:47;10.10;98.90
19803;DHT22;66074;50.764;6.090;2024-02-21T04:03:13;10.10;98.80
19803;DHT22;66074;50.764;6.090;2024-02-21T04:05:39;10.10;98.90
19803;DHT22;66074;50.764;6.090;2024-02-21T04:08:05;10.10;98.90
19803;DHT22;66074;50.764;6.090;2024-02-21T04:10:31;10.10;99.00
19803;DHT22;66074;50.764;6.090;2024-02-21T04:12:57;10.10;98.90
19803;DHT22;66074;50.764;6.090;2024-02-21T04:15:22;10.20;99.00
19803;DHT22;66074;50.764;6.090;2024-02-21T04:17:48;10.10;98.90
19803;DHT22;66074;50.764;6.090;2024-02-21T04:20:15;10.10;98.90
19803;DHT22;66074;50.764;6.090;2024-02-21T04:22:44;10.10;99.00
19803;DHT22;66074;50.764;6.090;2024-02-21T04:25:10;10.10;99.00
19803;DHT22;66074;50.764;6.090;2024-02-21T04:27:37;10.10;99.00
19803;DHT22;66074;50.764;6.090;2024-02-21T04:30:03;10.10;99.00
19803;DHT22;66074;50.764;6.090;2024-02-21T04:32:29;10.10;99.00
19803;DHT22;66074;50.764;6.090;2024-02-21T04:34:54;10.10;99.00
19803;DHT22;66074;50.764;6.090;2024-02-21T04:37:20;10.10;99.10
19803;DHT22;66074;50.764;6.090;2024-02-21T04:39:48;10.10;99.00
19803;DHT22;66074;50.764;6.090;2024-02-21T04:42:14;10.10;99.10
19803;DHT22;66074;50.764;6.090;2024-02-21T04:44:40;10.10;99.30
19803;DHT22;66074;50.764;6.090;2024-02-21T04:47:06;10.10;99.10
19803;DHT22;66074;50.764;6.090;2024-02-21T04:49:32;10.10;99.30
19803;DHT22;66074;50.764;6.090;2024-02-21T04:51:58;10.10;99.30
19803;DHT22;66074;50.764;6.090;2024-02-21T04:54:24;10.10;99.30
19803;DHT22;66074;50.764;6.090;2024-02-21T04:56:49;10.10;99.40
19803;DHT22;66074;50.764;6.090;2024-02-21T04:59:15;10.00;99.30
19803;DHT22;66074;50.764;6.090;2024-02-21T05:01:41;10.10;99.40
19803;DHT22;66074;50.764;6.090;2024-02-21T05:04:06;10.10;99.40
19803;DHT22;66074;50.764;6.090;2024-02-21T05:06:32;10.10;99.40
19803;DHT22;66074;50.764;6.090;2024-02-21T05:08:57;10.10;99.40
19803;DHT22;66074;50.764;6.090;2024-02-21T05:11:24;10.10;99.40
19803;DHT22;66074;50.764;6.090;2024-02-21T05:13:50;10.10;99.40
19803;DHT22;66074;50.764;6.090;2024-02-21T05:16:15;10.10;99.40
19803;DHT22;66074;50.764;6.090;2024-02-21T05:18:41;10.10;99.50
19803;DHT22;66074;50.764;6.090;2024-02-21T05:21:08;10.10;99.60
19803;DHT22;66074;50.764;6.090;2024-02-21T05:23:34;10.00;99.50
19803;DHT22;66074;50.764;6.090;2024-02-21T05:25:59;10.10;99.60
19803;DHT22;66074;50.764;6.090;2024-02-21T05:28:25;10.10;99.50
19803;DHT22;66074;50.764;6.090;2024-02-21T05:30:50;10.10;99.60
19803;DHT22;66074;50.764;6.090;2024-02-21T05:33:16;10.10;99.60
19803;DHT22;66074;50.764;6.090;2024-02-21T05:35:47;10.10;99.50
19803;DHT22;66074;50.764;6.090;2024-02-21T05:38:13;10.10;99.50
19803;DHT22;66074;50.764;6.090;2024-02-21T05:40:39;10.00;99.50
19803;DHT22;66074;50.764;6.090;2024-02-21T05:43:04;10.00;99.50
19803;DHT22;66074;50.764;6.090;2024-02-21T05:45:30;10.10;99.50
19803;DHT22;66074;50.764;6.090;2024-02-21T05:47:55;10.10;99.50
19803;DHT22;66074;50.764;6.090;2024-02-21T05:50:22;10.10;99.40
19803;DHT22;66074;50.764;6.090;2024-02-21T05:52:52;10.10;99.40
19803;DHT22;66074;50.764;6.090;2024-02-21T05:55:18;10.10;99.40
19803;DHT22;66074;50.764;6.090;2024-02-21T05:57:43;10.10;99.40
19803;DHT22;66074;50.764;6.090;2024-02-21T06:00:09;10.10;99.50
19803;DHT22;66074;50.764;6.090;2024-02-21T06:02:35;10.30;99.50
19803;DHT22;66074;50.764;6.090;2024-02-21T06:05:01;10.10;99.50
19803;DHT22;66074;50.764;6.090;2024-02-21T06:07:26;10.20;99.50
19803;DHT22;66074;50.764;6.090;2024-02-21T06:09:52;10.10;99.40
19803;DHT22;66074;50.764;6.090;2024-02-21T06:12:18;10.20;99.50
19803;DHT22;66074;50.764;6.090;2024-02-21T06:14:43;10.10;99.40
19803;DHT22;66074;50.764;6.090;2024-02-21T06:17:09;10.20;99.40
19803;DHT22;66074;50.764;6.090;2024-02-21T06:19:34;10.20;99.40
19803;DHT22;66074;50.764;6.090;2024-02-21T06:22:00;10.20;99.40
19803;DHT22;66074;50.764;6.090;2024-02-21T06:24:26;10.10;99.30
19803;DHT22;66074;50.764;6.090;2024-02-21T06:26:51;10.20;99.40
19803;DHT22;66074;50.764;6.090;2024-02-21T06:29:17;10.20;99.40
19803;DHT22;66074;50.764;6.090;2024-02-21T06:31:42;10.10;99.30
19803;DHT22;66074;50.764;6.090;2024-02-21T06:34:08;10.10;99.20
19803;DHT22;66074;50.764;6.090;2024-02-21T06:36:34;10.10;99.20
19803;DHT22;66074;50.764;6.090;2024-02-21T06:38:59;10.10;99.30
19803;DHT22;66074;50.764;6.090;2024-02-21T06:41:25;10.10;99.20
19803;DHT22;66074;50.764;6.090;2024-02-21T06:43:50;10.10;99.20
19803;DHT22;66074;50.764;6.090;2024-02-21T06:46:24;10.10;98.90
19803;DHT22;66074;50.764;6.090;2024-02-21T06:48:50;10.10;99.20
19803;DHT22;66074;50.764;6.090;2024-02-21T06:51:15;10.10;99.20
19803;DHT22;66074;50.764;6.090;2024-02-21T06:53:41;10.10;99.30
19803;DHT22;66074;50.764;6.090;2024-02-21T06:56:08;10.10;99.20
19803;DHT22;66074;50.764;6.090;2024-02-21T06:58:33;10.20;99.30
19803;DHT22;66074;50.764;6.090;2024-02-21T07:00:59;10.10;99.00
19803;DHT22;66074;50.764;6.090;2024-02-21T07:03:24;10.10;99.10
19803;DHT22;66074;50.764;6.090;2024-02-21T07:05:50;10.10;99.00
19803;DHT22;66074;50.764;6.090;2024-02-21T07:08:16;10.10;98.90
19803;DHT22;66074;50.764;6.090;2024-02-21T07:10:41;10.00;98.80
19803;DHT22;66074;50.764;6.090;2024-02-21T07:13:07;10.00;98.70
19803;DHT22;66074;50.764;6.090;2024-02-21T07:15:32;10.00;98.70
19803;DHT22;66074;50.764;6.090;2024-02-21T07:17:58;10.10;98.50
19803;DHT22;66074;50.764;6.090;2024-02-21T07:20:24;10.10;98.60
19803;DHT22;66074;50.764;6.090;2024-02-21T07:22:50;10.00;98.20
19803;DHT22;66074;50.764;6.090;2024-02-21T07:25:16;10.00;98.50
19803;DHT22;66074;50.764;6.090;2024-02-21T07:27:43;10.10;98.20
19803;DHT22;66074;50.764;6.090;2024-02-21T07:30:09;10.10;98.00
19803;DHT22;66074;50.764;6.090;2024-02-21T07:32:35;10.00;97.90
19803;DHT22;66074;50.764;6.090;2024-02-21T07:35:00;10.00;98.00
19803;DHT22;66074;50.764;6.090;2024-02-21T07:37:26;10.00;97.60
19803;DHT22;66074;50.764;6.090;2024-02-21T07:39:51;10.20;97.90
19803;DHT22;66074;50.764;6.090;2024-02-21T07:42:17;10.10;97.50
19803;DHT22;66074;50.764;6.090;2024-02-21T07:44:42;10.10;97.30
19803;DHT22;66074;50.764;6.090;2024-02-21T07:47:08;10.10;97.20
19803;DHT22;66074;50.764;6.090;2024-02-21T07:49:41;10.10;97.40
19803;DHT22;66074;50.764;6.090;2024-02-21T07:52:06;10.10;97.30
19803;DHT22;66074;50.764;6.090;2024-02-21T07:54:33;10.20;97.50
19803;DHT22;66074;50.764;6.090;2024-02-21T07:56:58;10.20;97.60
19803;DHT22;66074;50.764;6.090;2024-02-21T07:59:24;10.20;97.40
19803;DHT22;66074;50.764;6.090;2024-02-21T08:01:49;10.20;97.50
19803;DHT22;66074;50.764;6.090;2024-02-21T08:04:15;10.30;97.70
19803;DHT22;66074;50.764;6.090;2024-02-21T08:06:40;10.30;97.50
19803;DHT22;66074;50.764;6.090;2024-02-21T08:09:06;10.30;97.50
19803;DHT22;66074;50.764;6.090;2024-02-21T08:11:31;10.30;97.50
19803;DHT22;66074;50.764;6.090;2024-02-21T08:13:57;10.40;97.40
19803;DHT22;66074;50.764;6.090;2024-02-21T08:16:23;10.40;97.10
19803;DHT22;66074;50.764;6.090;2024-02-21T08:18:49;10.40;97.50
19803;DHT22;66074;50.764;6.090;2024-02-21T08:21:14;10.50;97.30
19803;DHT22;66074;50.764;6.090;2024-02-21T08:23:40;10.50;97.00
19803;DHT22;66074;50.764;6.090;2024-02-21T08:26:05;10.60;96.70
19803;DHT22;66074;50.764;6.090;2024-02-21T08:28:31;10.50;97.00
19803;DHT22;66074;50.764;6.090;2024-02-21T08:30:56;10.50;96.80
19803;DHT22;66074;50.764;6.090;2024-02-21T08:33:22;10.60;96.70
19803;DHT22;66074;50.764;6.090;2024-02-21T08:35:53;10.50;96.40
19803;DHT22;66074;50.764;6.090;2024-02-21T08:38:19;10.50;96.50
19803;DHT22;66074;50.764;6.090;2024-02-21T08:40:44;10.50;96.60
19803;DHT22;66074;50.764;6.090;2024-02-21T08:43:10;10.50;96.10
19803;DHT22;66074;50.764;6.090;2024-02-21T08:45:35;10.50;96.60
19803;DHT22;66074;50.764;6.090;2024-02-21T08:48:01;10.50;96.20
19803;DHT22;66074;50.764;6.090;2024-02-21T08:50:27;10.50;96.50
19803;DHT22;66074;50.764;6.090;2024-02-21T08:52:53;10.50;96.20
19803;DHT22;66074;50.764;6.090;2024-02-21T08:55:19;10.60;95.90
19803;DHT22;66074;50.764;6.090;2024-02-21T08:57:44;10.60;96.20
19803;DHT22;66074;50.764;6.090;2024-02-21T09:00:10;10.60;96.30
19803;DHT22;66074;50.764;6.090;2024-02-21T09:02:40;10.60;96.00
19803;DHT22;66074;50.764;6.090;2024-02-21T09:05:08;10.50;96.10
19803;DHT22;66074;50.764;6.090;2024-02-21T09:07:34;10.70;96.20
19803;DHT22;66074;50.764;6.090;2024-02-21T09:09:59;10.70;96.10
19803;DHT22;66074;50.764;6.090;2024-02-21T09:12:26;10.70;95.80
19803;DHT22;66074;50.764;6.090;2024-02-21T09:14:51;10.70;96.30
19803;DHT22;66074;50.764;6.090;2024-02-21T09:17:17;10.70;95.80
19803;DHT22;66074;50.764;6.090;2024-02-21T09:19:44;10.70;95.70
19803;DHT22;66074;50.764;6.090;2024-02-21T09:22:09;10.80;95.90
19803;DHT22;66074;50.764;6.090;2024-02-21T09:24:35;10.80;96.00
19803;DHT22;66074;50.764;6.090;2024-02-21T09:27:01;10.80;96.10
19803;DHT22;66074;50.764;6.090;2024-02-21T09:29:26;10.80;95.80
19803;DHT22;66074;50.764;6.090;2024-02-21T09:31:52;11.00;95.80
19803;DHT22;66074;50.764;6.090;2024-02-21T09:34:18;10.80;95.70
19803;DHT22;66074;50.764;6.090;2024-02-21T09:36:44;10.90;95.90
19803;DHT22;66074;50.764;6.090;2024-02-21T09:39:10;10.90;95.60
19803;DHT22;66074;50.764;6.090;2024-02-21T09:41:45;10.90;95.70
19803;DHT22;66074;50.764;6.090;2024-02-21T09:44:13;10.90;95.70
19803;DHT22;66074;50.764;6.090;2024-02-21T09:46:48;10.90;95.60
19803;DHT22;66074;50.764;6.090;2024-02-21T09:51:55;10.90;95.60
19803;DHT22;66074;50.764;6.090;2024-02-21T09:54:22;11.00;95.50
19803;DHT22;66074;50.764;6.090;2024-02-21T09:56:48;11.00;95.80
19803;DHT22;66074;50.764;6.090;2024-02-21T09:59:16;11.00;95.70
19803;DHT22;66074;50.764;6.090;2024-02-21T10:01:45;11.10;95.50
19803;DHT22;66074;50.764;6.090;2024-02-21T10:04:12;11.00;95.40
19803;DHT22;66074;50.764;6.090;2024-02-21T10:06:38;11.10;95.40
19803;DHT22;66074;50.764;6.090;2024-02-21T10:09:06;11.10;95.50
19803;DHT22;66074;50.764;6.090;2024-02-21T10:11:31;11.10;95.30
19803;DHT22;66074;50.764;6.090;2024-02-21T10:14:07;11.20;95.40
19803;DHT22;66074;50.764;6.090;2024-02-21T10:16:33;11.20;95.20
19803;DHT22;66074;50.764;6.090;2024-02-21T10:18:59;11.20;95.40
19803;DHT22;66074;50.764;6.090;2024-02-21T10:21:24;11.30;95.30
19803;DHT22;66074;50.764;6.090;2024-02-21T10:23:51;11.20;95.20
19803;DHT22;66074;50.764;6.090;2024-02-21T10:26:18;11.30;95.20
19803;DHT22;66074;50.764;6.090;2024-02-21T10:28:44;11.30;95.30
19803;DHT22;66074;50.764;6.090;2024-02-21T10:31:24;11.40;95.20
19803;DHT22;66074;50.764;6.090;2024-02-21T10:34:00;11.50;95.30
19803;DHT22;66074;50.764;6.090;2024-02-21T10:36:29;11.50;95.40
19803;DHT22;66074;50.764;6.090;2024-02-21T10:38:55;11.50;95.30
19803;DHT22;66074;50.764;6.090;2024-02-21T10:41:22;11.60;95.20
19803;DHT22;66074;50.764;6.090;2024-02-21T10:43:52;11.60;95.20
19803;DHT22;66074;50.764;6.090;2024-02-21T10:46:20;11.60;95.10
19803;DHT22;66074;50.764;6.090;2024-02-21T10:48:47;11.60;95.10
19803;DHT22;66074;50.764;6.090;2024-02-21T10:51:17;11.60;94.90
19803;DHT22;66074;50.764;6.090;2024-02-21T10:54:08;11.70;95.10
19803;DHT22;66074;50.764;6.090;2024-02-21T10:56:38;11.70;95.00
19803;DHT22;66074;50.764;6.090;2024-02-21T10:59:06;11.70;94.90
19803;DHT22;66074;50.764;6.090;2024-02-21T11:01:32;11.70;95.10
19803;DHT22;66074;50.764;6.090;2024-02-21T11:04:01;11.80;95.10
19803;DHT22;66074;50.764;6.090;2024-02-21T11:06:28;11.80;95.00
19803;DHT22;66074;50.764;6.090;2024-02-21T11:09:04;11.80;94.90
19803;DHT22;66074;50.764;6.090;2024-02-21T11:14:09;11.90;94.90
19803;DHT22;66074;50.764;6.090;2024-02-21T11:16:40;11.90;94.90
19803;DHT22;66074;50.764;6.090;2024-02-21T11:19:07;11.90;94.70
19803;DHT22;66074;50.764;6.090;2024-02-21T11:21:34;11.90;94.80
19803;DHT22;66074;50.764;6.090;2024-02-21T11:24:01;11.90;94.80
19803;DHT22;66074;50.764;6.090;2024-02-21T11:26:29;12.00;94.80
19803;DHT22;66074;50.764;6.090;2024-02-21T11:29:01;12.00;94.90
19803;DHT22;66074;50.764;6.090;2024-02-21T11:31:41;12.00;94.80
19803;DHT22;66074;50.764;6.090;2024-02-21T11:34:16;12.10;94.70
19803;DHT22;66074;50.764;6.090;2024-02-21T11:36:50;12.10;94.60
19803;DHT22;66074;50.764;6.090;2024-02-21T11:39:24;12.10;94.70
19803;DHT22;66074;50.764;6.090;2024-02-21T11:42:01;12.10;94.30
19803;DHT22;66074;50.764;6.090;2024-02-21T11:44:27;12.00;94.30
19803;DHT22;66074;50.764;6.090;2024-02-21T11:46:53;12.10;94.40
19803;DHT22;66074;50.764;6.090;2024-02-21T11:49:18;12.00;94.40
19803;DHT22;66074;50.764;6.090;2024-02-21T11:51:44;12.10;94.90
19803;DHT22;66074;50.764;6.090;2024-02-21T11:54:11;12.10;94.30
19803;DHT22;66074;50.764;6.090;2024-02-21T11:56:38;12.20;94.30
19803;DHT22;66074;50.764;6.090;2024-02-21T11:59:04;12.20;94.20
19803;DHT22;66074;50.764;6.090;2024-02-21T12:01:31;12.20;94.20
19803;DHT22;66074;50.764;6.090;2024-02-21T12:03:57;12.30;94.10
19803;DHT22;66074;50.764;6.090;2024-02-21T12:06:23;12.30;94.20
19803;DHT22;66074;50.764;6.090;2024-02-21T12:08:48;12.40;93.80
19803;DHT22;66074;50.764;6.090;2024-02-21T12:11:21;12.30;93.30
19803;DHT22;66074;50.764;6.090;2024-02-21T12:14:02;12.40;93.90
19803;DHT22;66074;50.764;6.090;2024-02-21T12:16:30;12.50;94.10
19803;DHT22;66074;50.764;6.090;2024-02-21T12:18:57;12.50;94.00
19803;DHT22;66074;50.764;6.090;2024-02-21T12:21:27;12.60;93.90
19803;DHT22;66074;50.764;6.090;2024-02-21T12:23:55;12.60;93.90
19803;DHT22;66074;50.764;6.090;2024-02-21T12:26:22;12.60;94.00
19803;DHT22;66074;50.764;6.090;2024-02-21T12:28:48;12.70;93.40
19803;DHT22;66074;50.764;6.090;2024-02-21T12:31:13;12.70;93.50
19803;DHT22;66074;50.764;6.090;2024-02-21T12:33:39;12.70;93.30
19803;DHT22;66074;50.764;6.090;2024-02-21T12:36:05;12.80;93.60
19803;DHT22;66074;50.764;6.090;2024-02-21T12:38:31;12.80;93.60
19803;DHT22;66074;50.764;6.090;2024-02-21T12:40:57;12.90;93.70
19803;DHT22;66074;50.764;6.090;2024-02-21T12:43:23;12.90;93.70
19803;DHT22;66074;50.764;6.090;2024-02-21T12:45:49;12.90;93.60
19803;DHT22;66074;50.764;6.090;2024-02-21T12:48:14;13.00;93.70
19803;DHT22;66074;50.764;6.090;2024-02-21T12:50:50;13.00;93.60
19803;DHT22;66074;50.764;6.090;2024-02-21T12:53:20;13.10;93.40
19803;DHT22;66074;50.764;6.090;2024-02-21T12:55:50;13.10;93.60
19803;DHT22;66074;50.764;6.090;2024-02-21T12:58:16;13.20;93.10
19803;DHT22;66074;50.764;6.090;2024-02-21T13:00:42;13.20;93.00
19803;DHT22;66074;50.764;6.090;2024-02-21T13:03:08;13.20;92.90
19803;DHT22;66074;50.764;6.090;2024-02-21T13:05:36;13.20;92.60
19803;DHT22;66074;50.764;6.090;2024-02-21T13:08:02;13.20;92.80
19803;DHT22;66074;50.764;6.090;2024-02-21T13:10:28;13.10;92.80
19803;DHT22;66074;50.764;6.090;2024-02-21T13:12:54;13.10;92.80
19803;DHT22;66074;50.764;6.090;2024-02-21T13:15:20;13.00;92.60
19803;DHT22;66074;50.764;6.090;2024-02-21T13:17:45;13.00;92.70
19803;DHT22;66074;50.764;6.090;2024-02-21T13:20:11;13.00;92.90
19803;DHT22;66074;50.764;6.090;2024-02-21T13:22:37;13.00;92.80
19803;DHT22;66074;50.764;6.090;2024-02-21T13:25:04;13.00;93.00
19803;DHT22;66074;50.764;6.090;2024-02-21T13:27:33;13.10;92.90
19803;DHT22;66074;50.764;6.090;2024-02-21T13:29:58;13.10;92.60
19803;DHT22;66074;50.764;6.090;2024-02-21T13:32:27;13.00;92.70
19803;DHT22;66074;50.764;6.090;2024-02-21T13:34:53;13.00;92.20
19803;DHT22;66074;50.764;6.090;2024-02-21T13:37:19;13.00;92.60
19803;DHT22;66074;50.764;6.090;2024-02-21T13:39:44;12.90;92.50
19803;DHT22;66074;50.764;6.090;2024-02-21T13:42:12;12.90;92.30
19803;DHT22;66074;50.764;6.090;2024-02-21T13:44:38;12.90;92.40
19803;DHT22;66074;50.764;6.090;2024-02-21T13:47:04;12.90;92.50
19803;DHT22;66074;50.764;6.090;2024-02-21T13:49:30;12.90;92.50
19803;DHT22;66074;50.764;6.090;2024-02-21T13:51:56;12.90;92.60
19803;DHT22;66074;50.764;6.090;2024-02-21T13:54:22;12.90;92.50
19803;DHT22;66074;50.764;6.090;2024-02-21T13:56:48;12.90;92.40
19803;DHT22;66074;50.764;6.090;2024-02-21T13:59:14;12.90;92.60
19803;DHT22;66074;50.764;6.090;2024-02-21T14:01:39;12.90;92.30
19803;DHT22;66074;50.764;6.090;2024-02-21T14:04:05;13.00;92.30
19803;DHT22;66074;50.764;6.090;2024-02-21T14:06:30;12.90;92.30
19803;DHT22;66074;50.764;6.090;2024-02-21T14:08:56;12.90;92.20
19803;DHT22;66074;50.764;6.090;2024-02-21T14:11:22;12.90;92.10
19803;DHT22;66074;50.764;6.090;2024-02-21T14:13:48;12.80;91.90
19803;DHT22;66074;50.764;6.090;2024-02-21T14:16:14;12.90;91.70
19803;DHT22;66074;50.764;6.090;2024-02-21T14:18:40;12.90;91.80
19803;DHT22;66074;50.764;6.090;2024-02-21T14:21:15;13.00;91.70
19803;DHT22;66074;50.764;6.090;2024-02-21T14:23:41;13.00;91.60
19803;DHT22;66074;50.764;6.090;2024-02-21T14:26:06;13.00;91.60
19803;DHT22;66074;50.764;6.090;2024-02-21T14:28:32;13.00;91.50
19803;DHT22;66074;50.764;6.090;2024-02-21T14:30:59;13.00;91.80
19803;DHT22;66074;50.764;6.090;2024-02-21T14:33:26;13.00;91.50
19803;DHT22;66074;50.764;6.090;2024-02-21T14:35:52;13.00;91.40
19803;DHT22;66074;50.764;6.090;2024-02-21T14:38:19;13.00;91.30
19803;DHT22;66074;50.764;6.090;2024-02-21T14:40:45;13.00;91.20
19803;DHT22;66074;50.764;6.090;2024-02-21T14:43:10;12.90;91.50
19803;DHT22;66074;50.764;6.090;2024-02-21T14:45:36;12.90;91.10
19803;DHT22;66074;50.764;6.090;2024-02-21T14:48:03;12.90;91.30
19803;DHT22;66074;50.764;6.090;2024-02-21T14:50:29;12.90;91.10
19803;DHT22;66074;50.764;6.090;2024-02-21T14:52:55;12.90;91.00
19803;DHT22;66074;50.764;6.090;2024-02-21T14:55:21;12.90;91.30
19803;DHT22;66074;50.764;6.090;2024-02-21T14:57:48;12.90;91.30
19803;DHT22;66074;50.764;6.090;2024-02-21T15:00:14;12.90;90.80
19803;DHT22;66074;50.764;6.090;2024-02-21T15:02:41;12.80;90.70
19803;DHT22;66074;50.764;6.090;2024-02-21T15:05:07;12.80;91.00
19803;DHT22;66074;50.764;6.090;2024-02-21T15:07:33;12.70;90.90
19803;DHT22;66074;50.764;6.090;2024-02-21T15:09:58;12.70;90.80
19803;DHT22;66074;50.764;6.090;2024-02-21T15:12:24;12.70;90.70
19803;DHT22;66074;50.764;6.090;2024-02-21T15:14:53;12.60;90.70
19803;DHT22;66074;50.764;6.090;2024-02-21T15:17:19;12.60;90.80
19803;DHT22;66074;50.764;6.090;2024-02-21T15:19:44;12.60;90.10
19803;DHT22;66074;50.764;6.090;2024-02-21T15:22:10;12.60;90.50
19803;DHT22;66074;50.764;6.090;2024-02-21T15:24:40;12.60;90.50
19803;DHT22;66074;50.764;6.090;2024-02-21T15:27:06;12.60;90.60
19803;DHT22;66074;50.764;6.090;2024-02-21T15:29:33;12.50;90.40
19803;DHT22;66074;50.764;6.090;2024-02-21T15:31:59;12.50;90.40
19803;DHT22;66074;50.764;6.090;2024-02-21T15:34:24;12.50;90.30